KMDT/MDT METAR and TAF weather

Enter ICAO airport designator
Station Type Date Time Source
KMDT METAR 2024/06/16 08:56 UTC NOAA

KMDT 160856Z 00000KT 10SM FEW100 FEW250 15/11 A3018 RMK AO2 SLP218 T01500111 53011


Station Type Date Time Source
KMDT Decoded METAR 2024/06/16 08:56 UTC NOAA

HARRISBURG INTERNATIONAL AIRPORT, PA, United States (KMDT) 40-12N 076-46W 95M
Jun 16, 2024 - 04:56 AM EDT / 2024.06.16 0856 UTC
Wind: Calm:0
Visibility: 10 mile(s):0
Sky conditions: mostly clear
Temperature: 59.0 F (15.0 C)
Dew Point: 52.0 F (11.1 C)
Relative Humidity: 77%
Pressure (altimeter): 30.18 in. Hg (1022 hPa)
Pressure tendency: 0.03 inches (1.1 hPa) higher than three hours ago
ob: KMDT 160856Z 00000KT 10SM FEW100 FEW250 15/11 A3018 RMK AO2 SLP218 T01500111 53011
cycle: 9

Station Type Date Time Source
KMDT TAF 2024/06/16 09:09 UTC NOAA